sensor_id;sensor_type;location;lat;lon;timestamp;pressure;altitude;pressure_sealevel;temperature;humidity
32851;BME280;19202;48.992;8.390;2023-01-16T00:00:26;99168.66;;;7.13;62.52
32851;BME280;19202;48.992;8.390;2023-01-16T00:06:04;99158.69;;;7.21;62.51
32851;BME280;19202;48.992;8.390;2023-01-16T00:11:42;99145.06;;;7.12;62.77
32851;BME280;19202;48.992;8.390;2023-01-16T00:17:21;99126.88;;;7.27;62.59
32851;BME280;19202;48.992;8.390;2023-01-16T00:23:01;99119.66;;;7.32;62.21
32851;BME280;19202;48.992;8.390;2023-01-16T00:28:39;99114.25;;;7.35;61.77
32851;BME280;19202;48.992;8.390;2023-01-16T00:34:17;99095.03;;;7.33;61.50
32851;BME280;19202;48.992;8.390;2023-01-16T00:39:55;99086.56;;;7.47;61.61
32851;BME280;19202;48.992;8.390;2023-01-16T00:45:33;99078.72;;;7.25;61.91
32851;BME280;19202;48.992;8.390;2023-01-16T00:51:11;99074.44;;;7.23;62.60
32851;BME280;19202;48.992;8.390;2023-01-16T00:56:49;99060.66;;;7.18;62.42
32851;BME280;19202;48.992;8.390;2023-01-16T01:02:26;99046.88;;;7.11;62.61
32851;BME280;19202;48.992;8.390;2023-01-16T01:08:05;99038.34;;;7.06;63.10
32851;BME280;19202;48.992;8.390;2023-01-16T01:13:46;99036.50;;;7.08;63.13
32851;BME280;19202;48.992;8.390;2023-01-16T01:19:25;99017.31;;;7.06;63.06
32851;BME280;19202;48.992;8.390;2023-01-16T01:25:04;99008.38;;;7.10;63.18
32851;BME280;19202;48.992;8.390;2023-01-16T01:30:42;98997.34;;;7.02;63.74
32851;BME280;19202;48.992;8.390;2023-01-16T01:36:23;98987.72;;;7.01;63.18
32851;BME280;19202;48.992;8.390;2023-01-16T01:42:01;98963.94;;;7.04;62.86
32851;BME280;19202;48.992;8.390;2023-01-16T01:48:15;98955.03;;;7.07;63.36
32851;BME280;19202;48.992;8.390;2023-01-16T01:53:59;98937.28;;;7.12;63.17
32851;BME280;19202;48.992;8.390;2023-01-16T01:59:49;98930.13;;;7.15;62.89
32851;BME280;19202;48.992;8.390;2023-01-16T02:05:37;98914.75;;;7.06;63.04
32851;BME280;19202;48.992;8.390;2023-01-16T02:11:29;98909.94;;;7.16;63.15
32851;BME280;19202;48.992;8.390;2023-01-16T02:17:15;98896.91;;;6.94;63.68
32851;BME280;19202;48.992;8.390;2023-01-16T02:23:37;98887.53;;;7.07;63.47
32851;BME280;19202;48.992;8.390;2023-01-16T02:29:40;98875.81;;;7.14;63.05
32851;BME280;19202;48.992;8.390;2023-01-16T02:47:25;98810.91;;;7.33;62.70
32851;BME280;19202;48.992;8.390;2023-01-16T02:53:29;98796.28;;;7.46;62.11
32851;BME280;19202;48.992;8.390;2023-01-16T02:59:10;98777.59;;;7.51;61.74
32851;BME280;19202;48.992;8.390;2023-01-16T03:04:51;98769.06;;;7.64;60.96
32851;BME280;19202;48.992;8.390;2023-01-16T03:10:42;98744.00;;;7.75;61.21
32851;BME280;19202;48.992;8.390;2023-01-16T03:22:28;98708.19;;;7.53;61.58
32851;BME280;19202;48.992;8.390;2023-01-16T03:34:17;98685.13;;;7.76;61.14
32851;BME280;19202;48.992;8.390;2023-01-16T03:40:03;98663.47;;;7.71;61.27
32851;BME280;19202;48.992;8.390;2023-01-16T03:45:52;98649.22;;;7.75;61.45
32851;BME280;19202;48.992;8.390;2023-01-16T03:51:36;98637.59;;;7.61;61.44
32851;BME280;19202;48.992;8.390;2023-01-16T03:57:30;98628.31;;;7.72;60.96
32851;BME280;19202;48.992;8.390;2023-01-16T04:03:15;98594.47;;;7.81;61.10
32851;BME280;19202;48.992;8.390;2023-01-16T04:08:56;98585.72;;;7.81;61.19
32851;BME280;19202;48.992;8.390;2023-01-16T04:14:36;98558.56;;;7.96;61.11
32851;BME280;19202;48.992;8.390;2023-01-16T04:20:15;98542.31;;;8.05;60.92
32851;BME280;19202;48.992;8.390;2023-01-16T04:25:54;98519.84;;;7.98;60.21
32851;BME280;19202;48.992;8.390;2023-01-16T04:31:32;98504.25;;;8.10;60.02
32851;BME280;19202;48.992;8.390;2023-01-16T04:37:14;98482.66;;;8.04;60.20
32851;BME280;19202;48.992;8.390;2023-01-16T04:42:53;98468.56;;;8.20;60.86
32851;BME280;19202;48.992;8.390;2023-01-16T04:48:34;98453.78;;;8.33;60.87
32851;BME280;19202;48.992;8.390;2023-01-16T04:54:15;98440.09;;;8.42;60.49
32851;BME280;19202;48.992;8.390;2023-01-16T04:59:53;98419.59;;;8.47;60.89
32851;BME280;19202;48.992;8.390;2023-01-16T05:05:31;98398.44;;;8.49;60.30
32851;BME280;19202;48.992;8.390;2023-01-16T05:11:09;98379.59;;;8.41;60.22
32851;BME280;19202;48.992;8.390;2023-01-16T05:16:47;98366.41;;;8.41;60.09
32851;BME280;19202;48.992;8.390;2023-01-16T05:22:25;98342.56;;;8.28;59.33
32851;BME280;19202;48.992;8.390;2023-01-16T05:28:04;98326.97;;;8.24;59.90
32851;BME280;19202;48.992;8.390;2023-01-16T05:33:42;98290.28;;;8.21;60.09
32851;BME280;19202;48.992;8.390;2023-01-16T05:39:21;98287.56;;;8.22;60.19
32851;BME280;19202;48.992;8.390;2023-01-16T05:44:59;98267.88;;;8.14;59.87
32851;BME280;19202;48.992;8.390;2023-01-16T05:50:37;98240.78;;;8.12;60.29
32851;BME280;19202;48.992;8.390;2023-01-16T05:56:15;98227.59;;;8.12;60.44
32851;BME280;19202;48.992;8.390;2023-01-16T06:01:55;98211.25;;;8.07;60.85
32851;BME280;19202;48.992;8.390;2023-01-16T06:07:35;98199.16;;;7.89;61.53
32851;BME280;19202;48.992;8.390;2023-01-16T06:13:13;98176.25;;;7.75;61.99
32851;BME280;19202;48.992;8.390;2023-01-16T06:18:51;98151.72;;;7.60;62.37
32851;BME280;19202;48.992;8.390;2023-01-16T06:24:28;98137.47;;;7.49;62.67
32851;BME280;19202;48.992;8.390;2023-01-16T06:30:07;98130.34;;;7.51;62.79
32851;BME280;19202;48.992;8.390;2023-01-16T06:35:45;98118.13;;;7.50;62.86
32851;BME280;19202;48.992;8.390;2023-01-16T06:41:23;98105.06;;;7.48;62.99
32851;BME280;19202;48.992;8.390;2023-01-16T06:47:02;98089.19;;;7.50;63.30
32851;BME280;19202;48.992;8.390;2023-01-16T06:52:40;98070.19;;;7.45;62.99
32851;BME280;19202;48.992;8.390;2023-01-16T06:58:18;98053.75;;;7.41;63.06
32851;BME280;19202;48.992;8.390;2023-01-16T07:03:57;98040.97;;;7.35;63.19
32851;BME280;19202;48.992;8.390;2023-01-16T07:09:34;98021.63;;;7.36;62.86
32851;BME280;19202;48.992;8.390;2023-01-16T07:15:12;98016.00;;;7.42;62.93
32851;BME280;19202;48.992;8.390;2023-01-16T07:21:11;98005.47;;;7.42;63.20
32851;BME280;19202;48.992;8.390;2023-01-16T07:27:09;97988.25;;;7.51;63.07
32851;BME280;19202;48.992;8.390;2023-01-16T07:32:47;97955.19;;;7.47;63.11
32851;BME280;19202;48.992;8.390;2023-01-16T07:38:26;97956.03;;;7.47;63.40
32851;BME280;19202;48.992;8.390;2023-01-16T07:44:04;97945.91;;;7.55;63.48
32851;BME280;19202;48.992;8.390;2023-01-16T07:49:44;97929.72;;;7.61;63.15
32851;BME280;19202;48.992;8.390;2023-01-16T07:55:22;97921.56;;;7.66;63.00
32851;BME280;19202;48.992;8.390;2023-01-16T08:01:00;97907.16;;;7.72;63.12
32851;BME280;19202;48.992;8.390;2023-01-16T08:06:38;97891.72;;;7.80;62.79
32851;BME280;19202;48.992;8.390;2023-01-16T08:12:21;97873.13;;;7.83;62.27
32851;BME280;19202;48.992;8.390;2023-01-16T08:17:59;97863.13;;;7.88;62.51
32851;BME280;19202;48.992;8.390;2023-01-16T08:23:37;97847.91;;;7.93;62.42
32851;BME280;19202;48.992;8.390;2023-01-16T08:29:17;97850.16;;;7.99;62.04
32851;BME280;19202;48.992;8.390;2023-01-16T08:34:55;97841.19;;;8.01;60.97
32851;BME280;19202;48.992;8.390;2023-01-16T08:40:33;97840.34;;;8.01;57.06
32851;BME280;19202;48.992;8.390;2023-01-16T08:46:17;97829.88;;;7.87;55.43
32851;BME280;19202;48.992;8.390;2023-01-16T08:52:26;97814.25;;;7.84;57.99
32851;BME280;19202;48.992;8.390;2023-01-16T08:58:05;97776.28;;;7.88;58.09
32851;BME280;19202;48.992;8.390;2023-01-16T09:03:44;97773.81;;;8.11;56.70
32851;BME280;19202;48.992;8.390;2023-01-16T09:09:22;97751.97;;;8.36;55.25
32851;BME280;19202;48.992;8.390;2023-01-16T09:15:00;97747.34;;;8.52;52.84
32851;BME280;19202;48.992;8.390;2023-01-16T09:20:38;97746.81;;;8.60;53.16
32851;BME280;19202;48.992;8.390;2023-01-16T09:26:16;97745.88;;;8.73;53.39
32851;BME280;19202;48.992;8.390;2023-01-16T09:31:54;97750.50;;;8.82;53.75
32851;BME280;19202;48.992;8.390;2023-01-16T09:37:31;97748.59;;;8.84;52.71
32851;BME280;19202;48.992;8.390;2023-01-16T09:43:36;97739.81;;;8.96;53.92
32851;BME280;19202;48.992;8.390;2023-01-16T09:49:26;97737.44;;;8.93;53.84
32851;BME280;19202;48.992;8.390;2023-01-16T09:55:17;97730.00;;;8.98;53.42
32851;BME280;19202;48.992;8.390;2023-01-16T10:01:20;97725.19;;;8.92;54.16
32851;BME280;19202;48.992;8.390;2023-01-16T10:24:58;97687.22;;;8.95;55.15
32851;BME280;19202;48.992;8.390;2023-01-16T10:30:47;97673.28;;;9.05;55.35
32851;BME280;19202;48.992;8.390;2023-01-16T10:36:31;97675.34;;;9.13;55.25
32851;BME280;19202;48.992;8.390;2023-01-16T10:42:12;97661.00;;;9.04;55.25
32851;BME280;19202;48.992;8.390;2023-01-16T10:48:11;97661.13;;;9.03;56.30
32851;BME280;19202;48.992;8.390;2023-01-16T10:54:10;97645.31;;;9.03;56.50
32851;BME280;19202;48.992;8.390;2023-01-16T10:59:54;97636.84;;;9.10;57.06
32851;BME280;19202;48.992;8.390;2023-01-16T11:05:35;97622.53;;;9.25;57.10
32851;BME280;19202;48.992;8.390;2023-01-16T11:11:14;97597.34;;;9.21;57.08
32851;BME280;19202;48.992;8.390;2023-01-16T11:23:27;97563.28;;;9.18;57.31
32851;BME280;19202;48.992;8.390;2023-01-16T11:29:05;97541.09;;;9.21;57.69
32851;BME280;19202;48.992;8.390;2023-01-16T11:34:47;97522.78;;;9.30;57.00
32851;BME280;19202;48.992;8.390;2023-01-16T11:40:26;97497.59;;;9.26;57.11
32851;BME280;19202;48.992;8.390;2023-01-16T11:46:21;97491.63;;;9.35;57.64
32851;BME280;19202;48.992;8.390;2023-01-16T11:52:03;97476.56;;;9.71;56.20
32851;BME280;19202;48.992;8.390;2023-01-16T11:57:53;97463.25;;;9.94;56.60
32851;BME280;19202;48.992;8.390;2023-01-16T12:04:01;97458.59;;;9.98;56.21
32851;BME280;19202;48.992;8.390;2023-01-16T12:15:33;97416.63;;;10.69;52.44
32851;BME280;19202;48.992;8.390;2023-01-16T12:27:47;97383.91;;;11.53;50.78
32851;BME280;19202;48.992;8.390;2023-01-16T12:45:56;97319.88;;;11.29;48.64
32851;BME280;19202;48.992;8.390;2023-01-16T12:51:52;97319.94;;;11.18;48.79
32851;BME280;19202;48.992;8.390;2023-01-16T12:57:46;97310.16;;;11.09;49.08
32851;BME280;19202;48.992;8.390;2023-01-16T13:03:35;97289.81;;;11.09;48.22
32851;BME280;19202;48.992;8.390;2023-01-16T13:16:22;97264.47;;;10.56;49.84
32851;BME280;19202;48.992;8.390;2023-01-16T13:22:23;97253.22;;;10.43;49.81
32851;BME280;19202;48.992;8.390;2023-01-16T13:28:23;97250.28;;;10.36;50.54
32851;BME280;19202;48.992;8.390;2023-01-16T13:34:32;97228.94;;;10.28;50.38
32851;BME280;19202;48.992;8.390;2023-01-16T13:46:00;97186.88;;;10.36;50.37
32851;BME280;19202;48.992;8.390;2023-01-16T13:51:41;97210.00;;;10.23;50.49
32851;BME280;19202;48.992;8.390;2023-01-16T13:57:22;97165.22;;;10.42;50.58
32851;BME280;19202;48.992;8.390;2023-01-16T14:32:19;97103.72;;;9.99;50.88
32851;BME280;19202;48.992;8.390;2023-01-16T14:38:13;97104.19;;;10.04;51.59
32851;BME280;19202;48.992;8.390;2023-01-16T14:44:15;97120.47;;;9.88;54.12
32851;BME280;19202;48.992;8.390;2023-01-16T14:50:14;97116.59;;;9.51;58.11
32851;BME280;19202;48.992;8.390;2023-01-16T15:02:08;97112.41;;;9.06;68.37
32851;BME280;19202;48.992;8.390;2023-01-16T15:07:57;97113.09;;;8.65;71.01
32851;BME280;19202;48.992;8.390;2023-01-16T15:13:36;97087.34;;;8.58;72.25
32851;BME280;19202;48.992;8.390;2023-01-16T15:19:33;97093.94;;;8.52;71.33
32851;BME280;19202;48.992;8.390;2023-01-16T15:25:54;97088.69;;;8.30;71.09
32851;BME280;19202;48.992;8.390;2023-01-16T15:31:38;97102.59;;;8.43;71.01
32851;BME280;19202;48.992;8.390;2023-01-16T15:37:22;97110.34;;;8.67;70.30
32851;BME280;19202;48.992;8.390;2023-01-16T15:43:01;97091.19;;;8.53;72.31
32851;BME280;19202;48.992;8.390;2023-01-16T15:49:12;97118.44;;;8.19;74.71
32851;BME280;19202;48.992;8.390;2023-01-16T15:54:53;97120.13;;;8.20;73.34
32851;BME280;19202;48.992;8.390;2023-01-16T16:00:34;97116.28;;;8.02;76.79
32851;BME280;19202;48.992;8.390;2023-01-16T16:06:14;97118.66;;;7.94;77.94
32851;BME280;19202;48.992;8.390;2023-01-16T16:11:54;97109.59;;;7.63;79.52
32851;BME280;19202;48.992;8.390;2023-01-16T16:17:40;97121.56;;;7.56;79.96
32851;BME280;19202;48.992;8.390;2023-01-16T16:23:33;97152.59;;;7.51;80.31
32851;BME280;19202;48.992;8.390;2023-01-16T16:29:18;97115.31;;;7.46;80.29
32851;BME280;19202;48.992;8.390;2023-01-16T16:34:56;97132.47;;;7.39;82.25
32851;BME280;19202;48.992;8.390;2023-01-16T16:40:35;97134.22;;;7.28;82.42
32851;BME280;19202;48.992;8.390;2023-01-16T16:52:22;97145.22;;;7.09;85.71
32851;BME280;19202;48.992;8.390;2023-01-16T16:58:11;97138.31;;;7.08;86.57
32851;BME280;19202;48.992;8.390;2023-01-16T17:03:54;97161.16;;;6.95;87.48
32851;BME280;19202;48.992;8.390;2023-01-16T17:09:33;97165.41;;;7.09;89.20
32851;BME280;19202;48.992;8.390;2023-01-16T17:15:12;97174.59;;;6.91;89.58
32851;BME280;19202;48.992;8.390;2023-01-16T17:20:51;97177.19;;;6.67;93.21
32851;BME280;19202;48.992;8.390;2023-01-16T17:26:32;97198.94;;;6.69;92.28
32851;BME280;19202;48.992;8.390;2023-01-16T17:32:30;97193.31;;;6.50;93.89
32851;BME280;19202;48.992;8.390;2023-01-16T17:38:15;97189.28;;;6.57;94.84
32851;BME280;19202;48.992;8.390;2023-01-16T17:43:54;97195.38;;;6.57;94.99
32851;BME280;19202;48.992;8.390;2023-01-16T17:49:50;97185.97;;;6.30;96.72
32851;BME280;19202;48.992;8.390;2023-01-16T17:55:49;97169.78;;;6.36;95.48
32851;BME280;19202;48.992;8.390;2023-01-16T18:01:31;97198.97;;;6.31;95.85
32851;BME280;19202;48.992;8.390;2023-01-16T18:07:14;97203.38;;;6.43;95.42
32851;BME280;19202;48.992;8.390;2023-01-16T18:12:52;97210.94;;;6.48;94.82
32851;BME280;19202;48.992;8.390;2023-01-16T18:18:49;97244.97;;;6.62;94.08
32851;BME280;19202;48.992;8.390;2023-01-16T18:24:32;97282.78;;;6.47;94.97
32851;BME280;19202;48.992;8.390;2023-01-16T18:30:11;97301.66;;;6.27;97.64
32851;BME280;19202;48.992;8.390;2023-01-16T18:35:49;97334.03;;;6.40;96.92
32851;BME280;19202;48.992;8.390;2023-01-16T18:41:27;97310.25;;;6.29;96.77
32851;BME280;19202;48.992;8.390;2023-01-16T18:47:24;97336.13;;;6.47;94.48
32851;BME280;19202;48.992;8.390;2023-01-16T18:53:32;97340.31;;;6.37;93.17
32851;BME280;19202;48.992;8.390;2023-01-16T18:59:29;97343.94;;;6.22;90.68
32851;BME280;19202;48.992;8.390;2023-01-16T19:05:26;97360.03;;;6.30;91.07
32851;BME280;19202;48.992;8.390;2023-01-16T19:11:06;97368.53;;;6.21;91.79
32851;BME280;19202;48.992;8.390;2023-01-16T19:16:44;97388.97;;;6.16;91.62
32851;BME280;19202;48.992;8.390;2023-01-16T19:22:22;97385.19;;;6.08;91.25
32851;BME280;19202;48.992;8.390;2023-01-16T19:28:00;97421.53;;;6.14;91.17
32851;BME280;19202;48.992;8.390;2023-01-16T19:33:38;97399.97;;;6.09;91.87
32851;BME280;19202;48.992;8.390;2023-01-16T19:39:16;97403.88;;;5.89;92.52
32851;BME280;19202;48.992;8.390;2023-01-16T19:44:54;97410.59;;;5.79;93.06
32851;BME280;19202;48.992;8.390;2023-01-16T19:50:51;97445.28;;;5.84;91.85
32851;BME280;19202;48.992;8.390;2023-01-16T19:56:30;97432.34;;;5.95;91.38
32851;BME280;19202;48.992;8.390;2023-01-16T20:02:09;97442.94;;;5.79;91.95
32851;BME280;19202;48.992;8.390;2023-01-16T20:07:47;97426.34;;;5.93;89.68
32851;BME280;19202;48.992;8.390;2023-01-16T20:13:27;97435.47;;;5.87;89.23
32851;BME280;19202;48.992;8.390;2023-01-16T20:19:05;97445.72;;;6.05;87.73
32851;BME280;19202;48.992;8.390;2023-01-16T20:24:43;97431.88;;;5.88;86.00
32851;BME280;19202;48.992;8.390;2023-01-16T20:30:21;97452.88;;;5.88;84.24
32851;BME280;19202;48.992;8.390;2023-01-16T20:36:18;97452.69;;;5.91;82.72
32851;BME280;19202;48.992;8.390;2023-01-16T20:41:56;97457.41;;;6.13;81.76
32851;BME280;19202;48.992;8.390;2023-01-16T20:47:53;97465.13;;;6.02;81.71
32851;BME280;19202;48.992;8.390;2023-01-16T20:53:31;97465.41;;;6.12;79.96
32851;BME280;19202;48.992;8.390;2023-01-16T20:59:09;97500.81;;;6.05;79.83
32851;BME280;19202;48.992;8.390;2023-01-16T21:04:48;97490.31;;;6.05;79.06
32851;BME280;19202;48.992;8.390;2023-01-16T21:10:28;97504.53;;;6.29;78.35
32851;BME280;19202;48.992;8.390;2023-01-16T21:16:07;97520.16;;;6.04;78.43
32851;BME280;19202;48.992;8.390;2023-01-16T21:22:04;97510.44;;;6.18;76.71
32851;BME280;19202;48.992;8.390;2023-01-16T21:27:45;97516.00;;;6.14;76.52
32851;BME280;19202;48.992;8.390;2023-01-16T21:33:23;97541.19;;;6.16;76.48
32851;BME280;19202;48.992;8.390;2023-01-16T21:39:01;97551.69;;;6.16;76.15
32851;BME280;19202;48.992;8.390;2023-01-16T21:44:39;97586.66;;;6.31;76.60
32851;BME280;19202;48.992;8.390;2023-01-16T21:50:37;97559.63;;;6.43;74.96
32851;BME280;19202;48.992;8.390;2023-01-16T21:56:20;97548.53;;;6.66;75.32
32851;BME280;19202;48.992;8.390;2023-01-16T22:01:58;97553.03;;;6.64;75.25
32851;BME280;19202;48.992;8.390;2023-01-16T22:07:38;97568.69;;;6.65;76.36
32851;BME280;19202;48.992;8.390;2023-01-16T22:13:16;97576.63;;;6.78;76.10
32851;BME280;19202;48.992;8.390;2023-01-16T22:19:19;97577.38;;;6.80;76.57
32851;BME280;19202;48.992;8.390;2023-01-16T22:25:09;97580.88;;;6.93;74.83
32851;BME280;19202;48.992;8.390;2023-01-16T22:30:53;97589.91;;;6.89;74.77
32851;BME280;19202;48.992;8.390;2023-01-16T22:36:32;97588.25;;;6.88;75.58
32851;BME280;19202;48.992;8.390;2023-01-16T22:42:15;97590.59;;;7.05;73.41
32851;BME280;19202;48.992;8.390;2023-01-16T22:47:53;97596.88;;;6.90;74.05
32851;BME280;19202;48.992;8.390;2023-01-16T22:53:31;97610.94;;;6.89;75.04
32851;BME280;19202;48.992;8.390;2023-01-16T22:59:10;97601.06;;;6.93;74.90
32851;BME280;19202;48.992;8.390;2023-01-16T23:04:48;97593.88;;;6.82;74.65
32851;BME280;19202;48.992;8.390;2023-01-16T23:10:25;97600.50;;;6.61;74.76
32851;BME280;19202;48.992;8.390;2023-01-16T23:16:04;97611.78;;;6.35;75.55
32851;BME280;19202;48.992;8.390;2023-01-16T23:21:44;97633.53;;;6.09;76.54
32851;BME280;19202;48.992;8.390;2023-01-16T23:27:22;97642.75;;;6.02;77.09
32851;BME280;19202;48.992;8.390;2023-01-16T23:33:02;97626.88;;;5.89;77.52
32851;BME280;19202;48.992;8.390;2023-01-16T23:38:40;97651.28;;;5.75;77.71
32851;BME280;19202;48.992;8.390;2023-01-16T23:44:20;97660.25;;;5.57;78.05
32851;BME280;19202;48.992;8.390;2023-01-16T23:50:14;97663.72;;;5.42;78.90
32851;BME280;19202;48.992;8.390;2023-01-16T23:55:54;97672.94;;;5.49;78.62
